May 19, 2022

Time Code Weather Temp. Visibility Clouds Wind METAR/SPECI
7:25 pm
V
55 °F 6¼ mi+ - 290°   290° 15 kt METAR EHVL 191725Z AUTO 29015KT 9999 SCT048 SCT052 13/12 Q1018 BLU
7:14 pm
V
55 °F 6¼ mi+ - 290°   290° 16 kt METAR EHVL 191714Z AUTO 29016KT 9999 FEW005 SCT052 13/12 Q1018 BLU
7:05 pm
I
55 °F 6¼ mi+ 500 ft 290°   290° 16 kt METAR EHVL 191705Z AUTO 29016KT 9999 BKN005 BKN041 BKN046 13/12 Q1018 YLO
6:58 pm
V
55 °F 6¼ mi+ 3,900 ft 290°   290° 16 kt METAR EHVL 191658Z AUTO 29016KT 9999 SCT005 BKN039 OVC044 13/12 Q1018 YLO
6:55 pm
V
57 °F 6¼ mi+ 3,900 ft 290°   290° 15 kt METAR EHVL 191655Z AUTO 29015KT 9999 FEW005 OVC039 14/12 Q1018 BLU
6:33 pm
I
57 °F 6¼ mi+ 600 ft 290°   290° 14 kt METAR EHVL 191633Z AUTO 29014KT 9999 SCT005 BKN006 OVC036 14/12 Q1018 YLO
6:29 pm
V
57 °F 6¼ mi+ 3,500 ft 290°   290° 14 kt METAR EHVL 191629Z AUTO 29014KT 9999 FEW005 SCT006 OVC035 14/12 Q1018 YLO
6:25 pm
V
57 °F 6¼ mi+ 3,500 ft 290°   290° 13 kt METAR EHVL 191625Z AUTO 29013KT 9999 FEW004 SCT029 OVC035 14/13 Q1017 BLU
6:00 pm
I
57 °F 6¼ mi+ 500 ft 280°   280° 14 kt METAR EHVL 191600Z AUTO 28014KT 9999 SCT004 BKN005 OVC019 14/13 Q1017 YLO
5:59 pm
M
59 °F 6¼ mi+ 1,500 ft 280°   280° 13 kt METAR EHVL 191559Z AUTO 28013KT 9999 SCT004 BKN015 OVC019 15/13 Q1017 YLO
5:55 pm
M
59 °F 6¼ mi+ 1,700 ft 280°   280° 11 kt METAR EHVL 191555Z AUTO 28011KT 9999 SCT011 SCT014 OVC017 15/14 Q1017 GRN
5:37 pm
M
57 °F 6¼ mi+ 1,100 ft 280°   280° 14 kt METAR EHVL 191537Z AUTO 28014KT 9999 BKN011 BKN014 OVC019 14/13 Q1017 GRN
5:33 pm
M
59 °F 6¼ mi+ 1,600 ft 280°   280° 15 kt METAR EHVL 191533Z AUTO 28015KT 9999 SCT011 SCT014 BKN016 15/13 Q1017 GRN
5:29 pm
M
59 °F 6¼ mi+ 1,600 ft 280°   280° 15 kt METAR EHVL 191529Z AUTO 28015KT 9999 FEW007 SCT013 BKN016 15/13 Q1017 GRN
5:25 pm
I
59 °F 6¼ mi+ 800 ft 280°   280° 16 kt METAR EHVL 191525Z AUTO 28016KT 9999 SCT006 BKN008 BKN014 15/13 Q1017 YLO
5:17 pm
M
59 °F 6¼ mi+ 1,400 ft 270°   270° 17 kt METAR EHVL 191517Z AUTO 27017KT 9999 SCT006 BKN014 OVC018 15/14 Q1017 YLO
4:55 pm
I
63 °F 6¼ mi+ 800 ft 260°   260° 15 kt METAR EHVL 191455Z AUTO 26015KT 9999 FEW006 SCT007 BKN008 17/15 Q1017 GRN
4:35 pm
V
66 °F 6¼ mi+ 32,000 ft 210°   210° 8 kt METAR EHVL 191435Z AUTO 21008KT 9999 FEW004 SCT005 OVC320 19/17 Q1016 YLO
4:25 pm
V
66 °F 6¼ mi+ 27,000 ft 190°   190° 6 kt METAR EHVL 191425Z AUTO 19006KT 160V220 9999 FEW004 OVC270 19/17 Q1016 BLU
3:55 pm
V
64 °F 6¼ mi+ 22,000 ft 230°   230° 4 kt METAR EHVL 191355Z AUTO 23004KT 9999 OVC220 18/16 Q1016 BLU
3:29 pm
V
63 °F 6¼ mi+ 10,000 ft 140°   140° 7 kt METAR EHVL 191329Z AUTO 14007KT 9999 FEW015CB OVC100 17/16 Q1016 BLU
3:25 pm
V
63 °F 6¼ mi+ 9,600 ft 140°   140° 9 kt METAR EHVL 191325Z AUTO 14009KT 9999 SCT015CB SCT091 BKN096 OVC102 17/16 Q1016 WHT
3:14 pm
M
63 °F 6¼ mi+ 1,500 ft 130°   130° 9 kt METAR EHVL 191314Z AUTO 13009KT 9999 -RA FEW001 BKN015CB BKN089 OVC096 17/16 Q1016 WHT
3:13 pm
M
63 °F 6¼ mi+ 1,500 ft 140°   140° 7 kt METAR EHVL 191313Z AUTO 14007KT 110V180 9999 -RA FEW001 SCT005 BKN015CB 17/16 Q1016 YLO
2:59 pm
M
63 °F 4⅜ mi 9,200 ft 180°   180° 6 kt METAR EHVL 191259Z AUTO 18006KT 140V210 7000 -SHRA SCT015CB OVC092 17/16 Q1016 WHT
2:55 pm
M
63 °F 3⅛ mi 8,000 ft 200°   200° 7 kt METAR EHVL 191255Z AUTO 20007KT 5000 -RA FEW015CB BKN080 OVC093 17/16 Q1017 RERA REDZ WHT
2:39 pm
M
63 °F 4⅜ mi 8,300 ft 220°   220° 7 kt METAR EHVL 191239Z AUTO 22007KT 7000 DZRA FEW015CB BKN083 OVC090 17/16 Q1017 WHT
2:26 pm
V
63 °F 5⅝ mi 8,300 ft 200°   200° 7 kt METAR EHVL 191226Z AUTO 20007KT 9000 BR SCT015CB BKN083 OVC088 17/16 Q1017 WHT
2:25 pm
V
63 °F 5⅝ mi 8,800 ft 200°   200° 7 kt METAR EHVL 191225Z AUTO 20007KT 9000 -RA FEW002/// SCT083/// BKN088/// 17/16 Q1017 BLU
1:55 pm
I
61 °F 2⅛ mi 5,900 ft 220°   220° 10 kt METAR EHVL 191155Z AUTO 22010KT 3500 SHRA FEW005 SCT051 BKN059 16/16 Q1018 RETS YLO
1:25 pm
I
63 °F 1¾ mi 6,500 ft 250°   250° 13 kt METAR EHVL 191125Z AUTO 25013KT 210V290 2900 -SHRA FEW005 FEW015CB SCT024 BKN065 17/15 Q1017 YLO
1:11 pm
I
64 °F 2⅝ mi 7,100 ft 200°   200° 7 kt METAR EHVL 191111Z AUTO 20007KT 4200 -RA FEW001 FEW015CB SCT044 OVC071 18/17 Q1017 GRN
12:55 pm
M
64 °F 4⅜ mi 7,900 ft 200°   200° 8 kt METAR EHVL 191055Z AUTO 20008KT 7000 BR FEW007 FEW015CB OVC079 18/17 Q1017 WHT
12:25 pm
M
64 °F 4⅜ mi 8,600 ft 130°   130° 12 kt METAR EHVL 191025Z AUTO 13012KT 7000 BR OVC086 18/17 Q1015 WHT
11:55 am
M
64 °F 3¾ mi 10,000 ft 110°   110° 17 kt METAR EHVL 190955Z AUTO 11017KT 6000 BR FEW065 OVC100 18/17 Q1015 WHT
11:25 am
I
63 °F 1⅞ mi 9,200 ft 090°   090° 13 kt METAR EHVL 190925Z AUTO 09013KT 3100 -DZ FEW015CB SCT081 BKN092 17/16 Q1015 REDZ YLO
10:55 am
I
63 °F 2⅛ mi 9,000 ft 100°   100° 10 kt METAR EHVL 190855Z AUTO 10010KT 3400 -RA FEW002 SCT015CB BKN090 OVC096 17/17 Q1016 YLO
10:46 am
I
63 °F 2⅝ mi 9,800 ft 110°   110° 7 kt METAR EHVL 190846Z AUTO 11007KT 4300 DZ FEW015CB OVC098 17/17 Q1016 GRN
10:33 am
I
63 °F 2¼ mi 8,700 ft 140°   140° 7 kt METAR EHVL 190833Z AUTO 14007KT 3700 -DZ FEW015CB BKN087 OVC093 17/16 Q1017 GRN
10:25 am
I
63 °F 2½ mi 8,500 ft 140°   140° 4 kt METAR EHVL 190825Z AUTO 14004KT 110V190 4000 -DZ FEW015CB SCT080 BKN085 BKN091 17/16 Q1017 RETS GRN
9:55 am
I
63 °F 2½ mi 5,100 ft 270°   270° 7 kt METAR EHVL 190755Z AUTO 27007KT 200V290 4100 BR FEW015CB BKN051 BKN059 BKN064 17/16 Q1017 GRN
9:25 am
I
63 °F 2⅜ mi 7,600 ft 100°   100° 5 kt METAR EHVL 190725Z AUTO 10005KT 3900 BR BKN076 OVC087 17/17 Q1016 GRN
8:55 am
I
63 °F 1⅝ mi 10,000 ft 110°   110° 11 kt METAR EHVL 190655Z AUTO 11011KT 2600 BR OVC100 17/16 Q1016 YLO
8:25 am
I
63 °F 1¾ mi 7,900 ft 080°   080° 3 kt METAR EHVL 190625Z AUTO 08003KT 2800 BR FEW070 OVC079 17/17 Q1016 YLO
7:55 am
I
63 °F 1¾ mi 6,800 ft 130°   130° 3 kt METAR EHVL 190555Z AUTO 13003KT 110V170 2900 SHRA +DZ FEW007 FEW015CB SCT050 BKN068 17/16 Q1017 YLO
7:25 am
I
61 °F 1 mi 1,500 ft 150°   150° 7 kt METAR EHVL 190525Z AUTO 15007KT 1700 -RA FEW005 BKN015CB BKN031 BKN035 16/16 Q1017 RETSRA YLO
6:59 am
L
61 °F ⅝ mi 1,500 ft 190°   190° 6 kt METAR EHVL 190459Z AUTO 19006KT 1100 +TSRA BKN000 BKN015CB 16/15 Q1018 RED
6:55 am
L
61 °F 1⅝ mi 300 ft 210°   210° 9 kt METAR EHVL 190455Z AUTO 21009KT 2600 +TSRA BKN000 BKN003 BKN007 BKN015CB 16/15 Q1018 RED
6:41 am
M
63 °F 3⅛ mi 3,000 ft 200°   200° 8 kt METAR EHVL 190441Z AUTO 20008KT 170V230 5000 TSRA FEW005 FEW015CB OVC030 17/15 Q1018 WHT
6:25 am
V
63 °F 5 mi 8,000 ft 220°   220° 12 kt METAR EHVL 190425Z AUTO 22012KT 150V260 8000 -TSRA FEW001 FEW015CB SCT017 BKN080 17/15 Q1018 WHT
6:12 am
M
63 °F 4⅜ mi 7,700 ft 180°   180° 15 kt METAR EHVL 190412Z AUTO 18015KT 130V270 7000 TS BR FEW015CB BKN077 BKN084 BKN091 17/15 Q1016 WHT
6:11 am
M
63 °F 4⅜ mi 7,700 ft 140°   140° 15 kt METAR EHVL 190411Z AUTO 14015KT 7000 -TSRA FEW001 FEW015CB SCT020 BKN077 17/15 Q1016 WHT
6:00 am
I
63 °F 3¾ mi 800 ft 140°   140° 17 kt METAR EHVL 190400Z AUTO 14017KT 6000 -TSRA FEW000 SCT005 BKN008 FEW015CB 17/15 Q1016 YLO
5:55 am
M
63 °F 3¾ mi 1,200 ft 140°   140° 18 kt METAR EHVL 190355Z AUTO 14018KT 6000 -TSRA FEW000 SCT005 BKN012 FEW015CB 17/15 Q1015 YLO
5:44 am
I
61 °F 3⅛ mi 500 ft 130°   130° 18 kt METAR EHVL 190344Z AUTO 13018KT 5000 -TSRA BKN000 BKN005 FEW015CB OVC053 16/15 Q1015 RED
5:43 am
M
61 °F 3⅛ mi 2,700 ft 130°   130° 20 kt METAR EHVL 190343Z AUTO 13020KT 5000 -TSRA SCT000 SCT005 FEW015CB BKN027 16/15 Q1015 RED
5:39 am
M
61 °F 3⅛ mi 7,000 ft 140°   140° 21 kt METAR EHVL 190339Z AUTO 14021KT 5000 -TSRA FEW000 FEW015CB BKN070 OVC087 16/15 Q1015 WHT
5:26 am
M
61 °F 3¾ mi 6,900 ft 130°   130° 14 kt METAR EHVL 190326Z AUTO 13014KT 6000 -TSRA FEW000 SCT005 FEW015CB BKN069 16/15 Q1015 YLO
5:25 am
M
61 °F 3⅛ mi 6,800 ft 130°   130° 14 kt METAR EHVL 190325Z AUTO 13014KT 5000 TSRA FEW000 SCT009 FEW015CB BKN068 16/15 Q1015 GRN
5:14 am
V
61 °F 6¼ mi+ 10,000 ft 130°   130° 14 kt METAR EHVL 190314Z AUTO 13014KT 9999 TS FEW015CB OVC100 16/15 Q1015 BLU
4:55 am
V
61 °F 6¼ mi+ 10,000 ft 130°   130° 14 kt METAR EHVL 190255Z AUTO 13014KT 9999 BKN100 OVC190 16/15 Q1016 BLU
4:25 am
V
61 °F 6¼ mi+ 20,000 ft 130°   130° 13 kt METAR EHVL 190225Z AUTO 13013KT 9999 SCT120 OVC200 16/15 Q1016 BLU
3:55 am
V
61 °F 6¼ mi+ 23,000 ft 120°   120° 15 kt METAR EHVL 190155Z AUTO 12015KT 9999 OVC230 16/15 Q1016 BLU
3:25 am
V
61 °F 6¼ mi+ 23,000 ft 120°   120° 16 kt METAR EHVL 190125Z AUTO 12016KT 9999 OVC230 16/14 Q1016 BLU
2:55 am
V
61 °F 6¼ mi+ 22,000 ft 110°   110° 16 kt METAR EHVL 190055Z AUTO 11016KT 9999 OVC220 16/14 Q1017 BLU
2:25 am
V
61 °F 6¼ mi+ 23,000 ft 110°   110° 15 kt METAR EHVL 190025Z AUTO 11015KT 9999 OVC230 16/13 Q1017 BLU
1:55 am
V
59 °F 6¼ mi+ 11,000 ft 110°   110° 13 kt METAR EHVL 182355Z AUTO 11013KT 9999 OVC110 15/13 Q1018 BLU
1:25 am
V
57 °F 6¼ mi+ 25,000 ft 090°   090° 9 kt METAR EHVL 182325Z AUTO 09009KT 9999 SCT110 OVC250 14/14 Q1018 BLU
12:55 am
V
55 °F 6¼ mi+ 23,000 ft 080°   080° 6 kt METAR EHVL 182255Z AUTO 08006KT 9999 OVC230 13/13 Q1019 BLU
12:25 am
V
55 °F 6¼ mi+ 21,000 ft 070°   070° 7 kt METAR EHVL 182225Z AUTO 07007KT 9999 OVC210 13/12 Q1019 BLU

May 18, 2022

Time Code Weather Temp. Visibility Clouds Wind METAR/SPECI
11:55 pm
V
55 °F 6¼ mi+ 22,000 ft 070°   070° 7 kt METAR EHVL 182155Z AUTO 07007KT 9999 OVC220 13/12 Q1019 BLU
11:25 pm
V
57 °F 6¼ mi+ 24,000 ft 070°   070° 7 kt METAR EHVL 182125Z AUTO 07007KT 9999 OVC240 14/13 Q1019 BLU
10:55 pm
V
54 °F 6¼ mi+ 24,000 ft 060°   060° 5 kt METAR EHVL 182055Z AUTO 06005KT 9999 OVC240 12/10 Q1019 BLU
10:25 pm
V
54 °F 6¼ mi+ 26,000 ft 050°   050° 4 kt METAR EHVL 182025Z AUTO 05004KT 9999 OVC260 12/11 Q1020 BLU
9:55 pm
V
55 °F 6¼ mi+ 26,000 ft 060°   060° 4 kt METAR EHVL 181955Z AUTO 06004KT 9999 OVC260 13/11 Q1019 BLU
9:25 pm
V
55 °F 6¼ mi+ 26,000 ft 040°   040° 3 kt METAR EHVL 181925Z AUTO 04003KT 9999 OVC260 13/12 Q1020 BLU
8:55 pm
V
57 °F 6¼ mi+ 26,000 ft 010°   010° 3 kt METAR EHVL 181855Z AUTO 01003KT 340V040 9999 OVC260 14/12 Q1020 BLU
8:25 pm
V
57 °F 6¼ mi+ 24,000 ft 350°   350° 3 kt METAR EHVL 181825Z AUTO 35003KT 9999 OVC240 14/12 Q1020 BLU
7:55 pm
V
59 °F 6¼ mi+ 24,000 ft 010°   010° 3 kt METAR EHVL 181755Z AUTO 01003KT 330V030 9999 OVC240 15/12 Q1020 BLU
7:25 pm
V
59 °F 6¼ mi+ 25,000 ft 020°   020° 5 kt METAR EHVL 181725Z AUTO 02005KT 9999 OVC250 15/12 Q1020 BLU
6:55 pm
V
59 °F 6¼ mi+ 27,000 ft 350°   350° 4 kt METAR EHVL 181655Z AUTO 35004KT 9999 OVC270 15/12 Q1021 BLU
6:25 pm
V
59 °F 6¼ mi+ 36,000 ft 340°   340° 6 kt METAR EHVL 181625Z AUTO 34006KT 310V010 9999 OVC360 15/11 Q1021 BLU
5:55 pm
V
61 °F 6¼ mi+ 36,000 ft 340°   340° 6 kt METAR EHVL 181555Z AUTO 34006KT 9999 SCT280 OVC360 16/11 Q1021 BLU
5:25 pm
V
61 °F 6¼ mi+ 26,000 ft 330°   330° 5 kt METAR EHVL 181525Z AUTO 33005KT 9999 BKN260 OVC330 16/12 Q1021 BLU
4:55 pm
V
61 °F 6¼ mi+ 27,000 ft 340°   340° 7 kt METAR EHVL 181455Z AUTO 34007KT 9999 BKN270 OVC350 16/12 Q1021 BLU
4:25 pm
V
61 °F 6¼ mi+ 26,000 ft 330°   330° 8 kt METAR EHVL 181425Z AUTO 33008KT 9999 BKN260 OVC350 16/11 Q1021 BLU
3:55 pm
V
61 °F 6¼ mi+ 29,000 ft 330°   330° 9 kt METAR EHVL 181355Z AUTO 33009KT 9999 OVC290 16/11 Q1021 BLU
3:25 pm
V
63 °F 6¼ mi+ 26,000 ft 320°   320° 9 kt METAR EHVL 181325Z AUTO 32009KT 9999 OVC260 17/12 Q1021 BLU
2:55 pm
V
63 °F 6¼ mi+ 26,000 ft 320°   320° 10 kt METAR EHVL 181255Z AUTO 32010KT 9999 OVC260 17/12 Q1021 BLU
2:25 pm
V
63 °F 6¼ mi+ 23,000 ft 310°   310° 10 kt METAR EHVL 181225Z AUTO 31010KT 9999 OVC230 17/12 Q1021 BLU
1:55 pm
V
63 °F 6¼ mi+ 24,000 ft 320°   320° 10 kt METAR EHVL 181155Z AUTO 32010KT 9999 OVC240 17/12 Q1021 BLU
1:25 pm
V
61 °F 6¼ mi+ 23,000 ft 310°   310° 10 kt METAR EHVL 181125Z AUTO 31010KT 9999 BKN230 OVC320 16/12 Q1021 BLU
12:55 pm
V
63 °F 6¼ mi+ - 310°   310° 10 kt METAR EHVL 181055Z AUTO 31010KT 9999 FEW340 17/13 Q1021 BLU
12:25 pm
V
63 °F 6¼ mi+ 39,000 ft 320°   320° 8 kt METAR EHVL 181025Z AUTO 32008KT 9999 BKN390 17/12 Q1021 BLU
11:55 am
V
63 °F 6¼ mi+ - 300°   300° 9 kt METAR EHVL 180955Z AUTO 30009KT 9999 SCT390 17/13 Q1021 BLU
11:25 am
V
63 °F 6¼ mi+ 37,000 ft 310°   310° 9 kt METAR EHVL 180925Z AUTO 31009KT 9999 BKN370 17/13 Q1020 BLU
10:55 am
V
61 °F 6¼ mi+ 7,300 ft 300°   300° 8 kt METAR EHVL 180855Z AUTO 30008KT 9999 OVC073 16/13 Q1020 BLU
10:25 am
V
63 °F 6¼ mi+ 38,000 ft 280°   280° 12 kt METAR EHVL 180825Z AUTO 28012KT 9999 OVC380 17/13 Q1020 BLU
9:55 am
V
63 °F 6¼ mi+ 36,000 ft 270°   270° 11 kt METAR EHVL 180755Z AUTO 27011KT 9999 OVC360 17/13 Q1019 BLU
9:25 am
V
63 °F 6¼ mi+ 37,000 ft 250°   250° 13 kt METAR EHVL 180725Z AUTO 25013KT 9999 OVC370 17/13 Q1019 BLU
8:55 am
V
66 °F 6¼ mi+ 35,000 ft 230°   230° 15 kt METAR EHVL 180655Z AUTO 23015KT 9999 OVC350 19/13 Q1019 BLU
8:25 am
V
64 °F 6¼ mi+ - 200°   200° 7 kt METAR EHVL 180625Z AUTO 20007KT 160V230 9999 FEW094 SCT360 18/15 Q1019 BLU
7:55 am
V
64 °F 6¼ mi+ 12,000 ft 180°   180° 7 kt METAR EHVL 180555Z AUTO 18007KT 9999 OVC120 18/15 Q1018 BLU
7:25 am
V
63 °F 5⅝ mi 10,000 ft 180°   180° 9 kt METAR EHVL 180525Z AUTO 18009KT 9000 BR FEW062 BKN100 17/16 Q1018 BLU
6:55 am
V
63 °F 6¼ mi+ 11,000 ft 160°   160° 10 kt METAR EHVL 180455Z AUTO 16010KT 9999 FEW077 OVC110 17/16 Q1018 BLU
6:25 am
V
63 °F 6¼ mi+ 12,000 ft 160°   160° 9 kt METAR EHVL 180425Z AUTO 16009KT 9999 SCT065 SCT073 OVC120 17/15 Q1018 BLU
5:55 am
V
63 °F 6¼ mi+ 12,000 ft 150°   150° 11 kt METAR EHVL 180355Z AUTO 15011KT 9999 OVC120 17/15 Q1017 BLU
5:25 am
V
63 °F 6¼ mi+ 12,000 ft 150°   150° 10 kt METAR EHVL 180325Z AUTO 15010KT 9999 OVC120/// 17/15 Q1017 BLU
4:55 am
V
63 °F 6¼ mi+ 13,000 ft 140°   140° 11 kt METAR EHVL 180255Z AUTO 14011KT 9999 OVC130 17/15 Q1017 BLU
4:25 am
V
63 °F 6¼ mi+ 38,000 ft 150°   150° 10 kt METAR EHVL 180225Z AUTO 15010KT 9999 FEW130 OVC380 17/15 Q1018 BLU
3:55 am
V
63 °F 6¼ mi+ 35,000 ft 150°   150° 11 kt METAR EHVL 180155Z AUTO 15011KT 9999 FEW130 OVC350 17/15 Q1018 BLU
3:25 am
V
64 °F 6¼ mi+ 38,000 ft 150°   150° 12 kt METAR EHVL 180125Z AUTO 15012KT 9999 OVC380 18/15 Q1018 BLU
2:55 am
V
63 °F 6¼ mi+ - 140°   140° 9 kt METAR EHVL 180055Z AUTO 14009KT 9999 NCD 17/15 Q1018 BLU
2:25 am
V
63 °F 6¼ mi+ - 140°   140° 9 kt METAR EHVL 180025Z AUTO 14009KT 9999 NCD 17/15 Q1018 BLU RMK CB INFO NOT AVBL
1:55 am
V
63 °F 6¼ mi+ 14,000 ft 130°   130° 9 kt METAR EHVL 172355Z AUTO 13009KT 9999 OVC140 17/15 Q1018 BLU
1:25 am
V
63 °F 6¼ mi+ 13,000 ft 120°   120° 10 kt METAR EHVL 172325Z AUTO 12010KT 9999 OVC130 17/15 Q1017 BLU
12:55 am
V
63 °F 6¼ mi+ 13,000 ft 110°   110° 10 kt METAR EHVL 172255Z AUTO 11010KT 9999 OVC130 17/14 Q1018 BLU
12:25 am
V
63 °F 6¼ mi+ 14,000 ft 100°   100° 9 kt METAR EHVL 172225Z AUTO 10009KT 9999 FEW047 OVC140 17/14 Q1018 BLU

May 17, 2022

Time Code Weather Temp. Visibility Clouds Wind METAR/SPECI
11:55 pm
V
63 °F 6¼ mi+ 11,000 ft 090°   090° 11 kt METAR EHVL 172155Z AUTO 09011KT 9999 FEW090 OVC110 17/14 Q1018 BLU
11:25 pm
V
64 °F 6¼ mi+ 15,000 ft 090°   090° 13 kt METAR EHVL 172125Z AUTO 09013KT 9999 SCT047 OVC150 18/14 Q1018 BLU
10:55 pm
V
64 °F 6¼ mi+ 4,700 ft 090°   090° 13 kt METAR EHVL 172055Z AUTO 09013KT 9999 BKN047 OVC140 18/13 Q1018 BLU
10:25 pm
V
63 °F 6¼ mi+ 15,000 ft 090°   090° 13 kt METAR EHVL 172025Z AUTO 09013KT 9999 FEW048 OVC150 17/14 Q1018 BLU
9:55 pm
V
63 °F 6¼ mi+ 22,000 ft 080°   080° 13 kt METAR EHVL 171955Z AUTO 08013KT 9999 SCT160 OVC220 17/14 Q1018 BLU
9:25 pm
V
64 °F 6¼ mi+ 14,000 ft 080°   080° 15 kt METAR EHVL 171925Z AUTO 08015KT 9999 FEW051 OVC140 18/14 Q1018 BLU
8:55 pm
V
64 °F 6¼ mi+ 14,000 ft 080°   080° 13 kt METAR EHVL 171855Z AUTO 08013KT 9999 OVC140 18/13 Q1018 BLU
8:25 pm
V
66 °F 6¼ mi+ 13,000 ft 070°   070° 11 kt METAR EHVL 171825Z AUTO 07011KT 9999 OVC130 19/13 Q1018 BLU
7:55 pm
V
66 °F 6¼ mi+ 14,000 ft 080°   080° 7 kt METAR EHVL 171755Z AUTO 08007KT 9999 OVC140 19/12 Q1018 BLU
7:25 pm
V
68 °F 6¼ mi+ 15,000 ft 080°   080° 6 kt METAR EHVL 171725Z AUTO 08006KT 9999 SCT053 SCT062 OVC150 20/12 Q1019 BLU
6:55 pm
V
68 °F 6¼ mi+ 4,300 ft 080°   080° 6 kt METAR EHVL 171655Z AUTO 08006KT 9999 OVC043 20/11 Q1019 BLU
6:38 pm
V
68 °F 6¼ mi+ 4,600 ft 100°   100° 5 kt METAR EHVL 171638Z AUTO 10005KT 9999 BKN046 OVC051 20/11 Q1019 BLU
6:25 pm
V
68 °F 6¼ mi+ 5,000 ft 110°   110° 6 kt METAR EHVL 171625Z AUTO 11006KT 9999 BKN050 BKN055 BKN180 20/11 Q1019 BLU
6:17 pm
I
68 °F 1⅛ mi 4,900 ft 110°   110° 6 kt METAR EHVL 171617Z AUTO 11006KT 1800 HZ BKN049 OVC053 20/10 Q1019 YLO
5:55 pm
V
68 °F 6¼ mi+ 4,900 ft 120°   120° 6 kt METAR EHVL 171555Z AUTO 12006KT 080V140 9999 OVC049 20/10 Q1019 BLU
5:25 pm
V
68 °F 6¼ mi+ 5,000 ft 130°   130° 7 kt METAR EHVL 171525Z AUTO 13007KT 100V160 9999 OVC050 20/11 Q1019 BLU
4:55 pm
V
68 °F 6¼ mi+ 4,900 ft 120°   120° 6 kt METAR EHVL 171455Z AUTO 12006KT 9999 OVC049 20/12 Q1019 BLU
Older data

Download our app

Easy access to all aviation weather on your mobile phone and tablet.
With many features not available on the website, like offline support and a personal airport list.

We and third parties follow your internet behavior on our website with cookies. If you continue, we assume you agree with our cookie policy. Learn more